K1PM-WX Weather Reports


time (UTC)temp
C
wind
direction
speed
KPH
gust
KPH
rain 1hr
cm
rain 24hr
cm
rain mn
cm
humidity
%
barometer
mb
20260507140356 13 180 8.0 9.7 0.00 0.00 0.00 55 1035.0
20260507135859 12 225 8.0 8.0 0.00 0.00 0.00 56 1035.0
20260507135356 13 180 3.2 4.8 0.00 0.00 0.00 56 1035.0
20260507134858 13 23 6.4 6.4 0.00 0.00 0.00 57 1035.0
20260507134357 12 293 3.2 3.2 0.00 0.00 0.00 59 1035.0
20260507133856 11 113 3.2 8.0 0.00 0.00 0.00 62 1035.0
20260507133356 11 90 8.0 9.7 0.00 0.00 0.00 63 1035.0
20260507132857 11 23 4.8 6.4 0.00 0.00 0.00 67 1035.0
20260507132357 10 338 3.2 8.0 0.00 0.00 0.00 69 1036.0
20260507131856 9 68 6.4 8.0 0.00 0.00 0.00 72 1036.0
20260507131356 8 113 6.4 6.4 0.00 0.00 0.00 76 1036.0
20260507130856 8 180 3.2 6.4 0.00 0.00 0.00 77 1035.0
20260507130356 7 90 4.8 6.4 0.00 0.00 0.00 78 1036.0
20260507125856 8 90 8.0 8.0 0.00 0.00 0.00 79 1036.0
20260507125356 8 45 6.4 8.0 0.00 0.00 0.00 82 1036.0
20260507124856 7 68 4.8 6.4 0.00 0.00 0.00 88 1036.0
20260507124357 6 45 4.8 9.7 0.00 0.00 0.00 90 1036.0
20260507123857 5 23 4.8 8.0 0.00 0.00 0.00 93 1036.0
20260507123356 5 45 6.4 8.0 0.00 0.00 0.00 96 1036.0
20260507122856 5 45 6.4 6.4 0.00 0.00 0.00 99 1036.0
20260507122356 5 23 3.2 8.0 0.00 0.00 0.00 99 1036.0
20260507121856 5 23 8.0 8.0 0.00 0.00 0.00 99 1036.0
20260507121356 5 45 8.0 9.7 0.00 0.00 0.00 99 1036.0
20260507120856 5 0 9.7 9.7 0.00 0.00 0.00 99 1036.0
20260507120358 5 23 4.8 8.0 0.00 0.00 0.00 99 1036.0
20260507115856 5 23 3.2 6.4 0.00 0.00 0.00 99 1036.0
20260507115356 5 23 3.2 4.8 0.00 0.00 0.00 99 1036.0
20260507114856 5 293 4.8 6.4 0.00 0.00 0.00 99 1036.0
20260507114356 5 45 3.2 3.2 0.00 0.00 0.00 99 1036.0
20260507113857 5 315 6.4 6.4 0.00 0.00 0.00 99 1036.0
20260507113356 5 315 3.2 3.2 0.00 0.00 0.00 99 1036.0
20260507112856 5 338 3.2 3.2 0.00 0.00 0.00 99 1036.0
20260507112356 5 23 1.6 3.2 0.00 0.00 0.00 99 1036.0
20260507111856 5 270 0.0 3.2 0.00 0.00 0.00 99 1036.0
20260507111356 5 248 0.0 0.0 0.00 0.00 0.00 99 1035.0
20260507110857 5 203 0.0 1.6 0.00 0.00 0.00 99 1035.0
20260507110356 5 270 0.0 3.2 0.00 0.00 0.00 99 1035.0
20260507105856 4 270 0.0 0.0 0.00 0.00 0.00 99 1035.0
20260507105356 4 180 0.0 1.6 0.00 0.00 0.00 99 1035.0
20260507104856 4 113 1.6 1.6 0.00 0.00 0.00 99 1035.0
20260507104357 4 180 0.0 0.0 0.00 0.00 0.00 99 1035.0
20260507103857 4 180 0.0 1.6 0.00 0.00 0.00 99 1035.0
20260507103358 4 113 1.6 1.6 0.00 0.00 0.00 99 1035.0
20260507102856 3 113 3.2 3.2 0.00 0.00 0.00 99 1035.0
20260507102356 3 135 0.0 1.6 0.00 0.00 0.00 99 1035.0
20260507101856 3 113 1.6 1.6 0.00 0.00 0.00 99 1035.0
20260507101359 3 90 0.0 0.0 0.00 0.00 0.00 99 1035.0
20260507100856 3 225 0.0 0.0 0.00 0.00 0.00 99 1035.0
20260507100356 3 158 0.0 0.0 0.00 0.00 0.00 99 1035.0
20260507095856 3 158 0.0 0.0 0.00 0.00 0.00 99 1035.0
20260507095404 2 45 0.0 0.0 0.00 0.00 0.00 99 1035.0
20260507094856 2 158 0.0 0.0 0.00 0.00 0.00 99 1035.0
20260507094358 2 158 0.0 0.0 0.00 0.00 0.00 99 1035.0
20260507093856 2 293 0.0 1.6 0.00 0.00 0.00 99 1035.0
20260507093356 2 23 1.6 1.6 0.00 0.00 0.00 99 1035.0
20260507092856 2 315 0.0 0.0 0.00 0.00 0.00 99 1035.0
20260507092356 2 203 0.0 0.0 0.00 0.00 0.00 99 1035.0
20260507091856 3 203 0.0 0.0 0.00 0.00 0.00 99 1035.0
20260507091356 3 203 0.0 0.0 0.00 0.00 0.00 99 1035.0
20260507090856 3 225 0.0 0.0 0.00 0.00 0.00 99 1035.0
20260507090356 3 203 0.0 0.0 0.00 0.00 0.00 99 1035.0
20260507085856 3 180 0.0 0.0 0.00 0.00 0.00 99 1035.0
20260507085356 3 180 0.0 1.6 0.00 0.00 0.00 99 1035.0
20260507084857 3 203 0.0 1.6 0.00 0.00 0.00 99 1035.0
20260507084357 3 225 1.6 4.8 0.00 0.00 0.00 99 1035.0
20260507083856 3 203 3.2 3.2 0.00 0.00 0.00 99 1035.0
20260507083356 3 203 1.6 3.2 0.00 0.00 0.00 99 1035.0
20260507082856 3 248 1.6 3.2 0.00 0.00 0.00 99 1035.0
20260507082356 3 203 3.2 3.2 0.00 0.00 0.00 99 1035.0
20260507081856 3 225 0.0 1.6 0.00 0.00 0.00 99 1035.0
20260507081356 3 225 0.0 0.0 0.00 0.00 0.00 99 1035.0
20260507080857 3 225 0.0 0.0 0.00 0.00 0.00 99 1035.0
20260507080356 3 180 0.0 0.0 0.00 0.00 0.00 99 1035.0
20260507075856 3 180 0.0 0.0 0.00 0.00 0.00 99 1035.0
20260507075357 3 203 0.0 0.0 0.00 0.00 0.00 99 1035.0
20260507074857 3 203 0.0 0.0 0.00 0.00 0.00 99 1035.0
20260507074356 3 203 0.0 1.6 0.00 0.00 0.00 99 1035.0
20260507073856 3 180 3.2 3.2 0.00 0.00 0.00 99 1035.0
20260507073357 3 203 1.6 1.6 0.00 0.00 0.00 99 1035.0
20260507072856 3 203 0.0 0.0 0.00 0.00 0.00 99 1035.0
20260507072357 3 203 0.0 0.0 0.00 0.00 0.00 99 1035.0
20260507071856 3 270 0.0 0.0 0.00 0.00 0.00 99 1035.0
20260507071357 3 45 0.0 0.0 0.00 0.00 0.00 99 1035.0
20260507070856 3 248 0.0 0.0 0.00 0.00 0.00 99 1035.0
20260507070356 3 113 0.0 1.6 0.00 0.00 0.00 99 1035.0
20260507065856 4 135 1.6 1.6 0.00 0.00 0.00 99 1035.0
20260507065356 4 113 3.2 3.2 0.00 0.00 0.00 99 1035.0
20260507064857 4 113 0.0 1.6 0.00 0.00 0.00 99 1035.0
20260507064356 5 135 0.0 1.6 0.00 0.00 0.00 99 1035.0
20260507063857 5 158 1.6 1.6 0.00 0.00 0.00 99 1035.0
20260507063356 5 180 0.0 0.0 0.00 0.00 0.00 99 1035.0
20260507062856 5 203 0.0 0.0 0.00 0.00 0.00 99 1035.0
20260507062356 5 225 0.0 1.6 0.00 0.00 0.00 99 1035.0
20260507061856 5 225 0.0 0.0 0.00 0.00 0.00 98 1035.0
20260507061356 5 203 0.0 0.0 0.00 0.00 0.00 98 1035.0
20260507060903 5 203 0.0 0.0 0.00 0.00 0.00 98 1035.0
20260507060357 5 203 0.0 0.0 0.00 0.00 0.00 97 1035.0
20260507055857 5 135 1.6 1.6 0.00 0.00 0.00 97 1035.0
20260507055356 5 113 1.6 1.6 0.00 0.00 0.00 97 1035.0
20260507054856 5 113 0.0 0.0 0.00 0.00 0.00 97 1036.0
20260507054357 5 113 0.0 1.6 0.00 0.00 0.00 97 1035.0
20260507053857 5 113 1.6 1.6 0.00 0.00 0.00 97 1035.0
20260507053357 6 135 0.0 1.6 0.00 0.00 0.00 97 1036.0
20260507052856 6 180 0.0 1.6 0.00 0.00 0.00 96 1036.0
20260507052357 6 203 1.6 1.6 0.00 0.00 0.00 96 1036.0
20260507051856 6 248 1.6 3.2 0.00 0.00 0.00 95 1036.0
20260507051356 6 158 0.0 0.0 0.00 0.00 0.00 95 1036.0
20260507050857 6 158 0.0 1.6 0.00 0.00 0.00 95 1036.0
20260507050356 6 113 0.0 1.6 0.00 0.00 0.00 95 1036.0
20260507045856 6 203 0.0 0.0 0.00 0.00 0.00 95 1036.0
20260507045356 6 225 0.0 1.6 0.00 0.00 0.00 95 1036.0
20260507044856 6 225 1.6 3.2 0.00 0.00 0.00 95 1036.0
20260507044356 6 203 0.0 1.6 0.00 0.00 0.00 95 1036.0
20260507043856 6 203 1.6 3.2 0.00 0.00 0.00 95 1036.0
20260507043356 6 225 1.6 4.8 0.00 0.00 0.00 95 1036.0
20260507042856 6 203 0.0 3.2 0.00 0.00 0.00 95 1036.0
20260507042356 6 203 1.6 4.8 0.00 0.00 0.00 95 1036.0
20260507041856 6 248 3.2 4.8 0.00 0.00 0.00 95 1036.0
20260507041356 6 203 1.6 3.2 0.00 0.00 0.00 95 1036.0
20260507040856 6 270 1.6 3.2 0.00 0.00 0.00 95 1036.0
20260507040356 6 248 1.6 6.4 0.00 0.00 0.00 95 1036.0
20260507035857 6 225 3.2 6.4 0.00 0.00 1.63 95 1036.0
20260507035356 6 225 6.4 6.4 0.00 0.00 1.63 95 1036.0
20260507034856 6 293 1.6 8.0 0.00 0.00 1.63 95 1036.0
20260507034357 6 225 4.8 6.4 0.00 0.00 1.63 95 1036.0
20260507033857 6 248 3.2 6.4 0.00 0.00 1.63 95 1036.0
20260507033356 6 248 3.2 6.4 0.00 0.00 1.63 95 1036.0
20260507032857 6 225 4.8 8.0 0.00 0.00 1.63 95 1036.0
20260507032356 6 225 1.6 6.4 0.00 0.00 1.63 95 1036.0
20260507031856 6 203 3.2 3.2 0.00 0.00 1.63 95 1036.0
20260507031356 6 225 4.8 4.8 0.00 0.00 1.63 95 1036.0
20260507030856 6 203 3.2 4.8 0.00 0.00 1.63 95 1036.0
20260507030358 6 270 4.8 4.8 0.00 0.00 1.63 95 1036.0
20260507025856 6 225 1.6 4.8 0.00 0.00 1.63 95 1036.0
20260507025356 6 270 1.6 4.8 0.00 0.00 1.63 95 1036.0
20260507024856 6 270 1.6 3.2 0.00 0.00 1.63 95 1036.0
20260507024357 6 270 3.2 4.8 0.00 0.00 1.63 95 1036.0
20260507023856 6 203 1.6 3.2 0.00 0.00 1.63 95 1036.0
20260507022856 6 203 3.2 3.2 0.00 0.00 1.63 95 1036.0
20260507022356 6 248 3.2 3.2 0.00 0.00 1.63 95 1036.0
20260507021857 6 248 0.0 3.2 0.00 0.00 1.63 95 1036.0
20260507021356 6 248 4.8 4.8 0.00 0.00 1.63 95 1036.0
20260507020858 6 248 0.0 1.6 0.00 0.00 1.63 95 1036.0
20260507020356 6 270 1.6 4.8 0.00 0.00 1.63 95 1036.0
20260507015856 6 270 3.2 3.2 0.00 0.00 1.63 95 1036.0
20260507015357 6 270 1.6 3.2 0.00 0.00 1.63 95 1036.0
20260507014856 6 248 1.6 3.2 0.00 0.00 1.63 95 1036.0
20260507014356 6 248 1.6 3.2 0.00 0.00 1.63 95 1036.0
20260507013856 6 248 3.2 3.2 0.00 0.00 1.63 95 1036.0
20260507013356 6 270 1.6 3.2 0.00 0.00 1.63 94 1036.0
20260507012857 6 248 1.6 3.2 0.00 0.00 1.63 94 1036.0
20260507012356 6 270 0.0 3.2 0.00 0.00 1.63 94 1036.0
20260507011856 6 248 0.0 0.0 0.00 0.00 1.63 94 1036.0
20260507011356 6 315 0.0 0.0 0.00 0.00 1.63 94 1036.0
20260507010859 6 248 0.0 3.2 0.00 0.00 1.63 94 1036.0
20260507010356 6 293 1.6 1.6 0.00 0.00 1.63 94 1036.0
20260507005857 6 293 1.6 1.6 0.00 0.00 1.63 94 1036.0
20260507005356 6 270 0.0 3.2 0.00 0.00 1.63 94 1036.0
20260507004856 6 248 3.2 3.2 0.00 0.00 1.63 94 1036.0
20260507004356 6 270 1.6 1.6 0.00 0.00 1.63 94 1036.0
20260507003856 6 270 0.0 1.6 0.00 0.00 1.63 94 1035.0
20260507003357 6 270 1.6 3.2 0.00 0.00 1.63 94 1035.0
20260507002857 6 293 1.6 3.2 0.00 0.00 1.63 94 1035.0
20260507002356 6 270 3.2 3.2 0.00 0.00 1.63 94 1035.0
20260507001856 6 315 1.6 1.6 0.00 0.00 1.63 94 1035.0
20260507001357 6 315 1.6 3.2 0.00 0.00 1.63 94 1035.0
20260507000856 6 293 4.8 4.8 0.00 0.00 1.63 94 1035.0
20260507000358 6 0 1.6 3.2 0.00 0.00 1.63 94 1035.0
20260506235856 6 315 3.2 4.8 0.00 0.00 1.63 94 1035.0
20260506235356 6 315 3.2 6.4 0.00 0.00 1.63 94 1035.0
20260506234856 7 23 3.2 4.8 0.00 0.00 1.63 94 1035.0
20260506234356 7 0 1.6 4.8 0.00 0.00 1.63 94 1035.0
20260506233856 7 293 3.2 4.8 0.00 0.00 1.63 94 1035.0
20260506233357 7 338 3.2 4.8 0.00 0.00 1.63 94 1035.0
20260506232856 7 293 3.2 6.4 0.00 0.00 1.63 95 1035.0
20260506232356 7 293 3.2 3.2 0.00 0.00 1.63 95 1035.0
20260506231856 7 270 1.6 4.8 0.00 0.00 1.63 95 1035.0
20260506231357 7 338 3.2 6.4 0.00 0.00 1.63 95 1035.0
20260506230856 6 270 3.2 3.2 0.00 0.00 1.63 95 1035.0
20260506230356 6 270 6.4 6.4 0.00 0.00 1.63 95 1035.0
20260506225856 7 270 3.2 6.4 0.00 0.00 1.63 95 1035.0
20260506225357 6 338 3.2 4.8 0.00 0.00 1.63 95 1035.0
20260506224857 6 270 4.8 6.4 0.00 0.00 1.63 95 1035.0
20260506224356 6 338 3.2 6.4 0.00 0.00 1.63 95 1035.0
20260506223856 6 270 6.4 9.7 0.00 0.00 1.63 95 1034.0
20260506223356 6 270 4.8 9.7 0.00 0.00 1.63 95 1034.0
20260506222857 7 315 6.4 9.7 0.00 0.00 1.63 96 1034.0
20260506222358 7 270 6.4 9.7 0.00 0.00 1.63 96 1034.0
20260506221856 7 293 8.0 12.9 0.00 0.00 1.63 96 1034.0
20260506221358 7 293 6.4 11.3 0.00 0.00 1.63 97 1034.0
20260506220856 7 293 6.4 9.7 0.00 0.00 1.63 97 1034.0
20260506220357 6 315 6.4 12.9 0.00 0.00 1.63 98 1034.0
20260506215858 7 338 9.7 12.9 0.00 0.00 1.63 98 1034.0
20260506215356 6 293 8.0 11.3 0.00 0.00 1.63 98 1033.0
20260506214856 6 315 9.7 11.3 0.00 0.00 1.63 97 1033.0
20260506214358 6 270 8.0 14.5 0.00 0.00 1.63 97 1033.0
20260506213856 6 315 12.9 14.5 0.00 0.00 1.63 97 1033.0
20260506213356 6 270 12.9 19.3 0.00 0.00 1.63 97 1033.0
20260506212856 6 338 16.1 24.1 0.00 0.00 1.63 96 1033.0
20260506212356 6 270 20.9 24.1 0.00 0.00 1.63 96 1033.0
20260506211856 6 270 14.5 25.7 0.00 0.00 1.63 94 1033.0
20260506211356 7 270 14.5 22.5 0.00 0.00 1.63 93 1033.0
20260506210856 7 270 16.1 24.1 0.00 0.00 1.63 92 1033.0
20260506210356 8 293 14.5 22.5 0.00 0.00 1.63 90 1033.0
20260506205856 9 315 19.3 19.3 0.00 0.00 1.63 88 1033.0
20260506205356 10 225 12.9 19.3 0.00 0.00 1.63 87 1032.0
20260506204856 10 248 8.0 12.9 0.00 0.00 1.63 87 1032.0
20260506204357 10 270 11.3 24.1 0.00 0.00 1.63 86 1032.0
20260506203857 10 225 16.1 27.4 0.00 0.00 1.63 85 1032.0
20260506203356 10 270 25.7 27.4 0.00 0.00 1.63 84 1032.0
20260506202857 10 270 12.9 24.1 0.00 0.00 1.63 82 1032.0
20260506202357 11 270 22.5 24.1 0.00 0.00 1.63 81 1032.0
20260506201857 11 270 17.7 20.9 0.00 0.00 1.63 81 1032.0
20260506201356 11 225 16.1 22.5 0.00 0.00 1.63 81 1032.0
20260506200856 11 225 19.3 20.9 0.00 0.00 1.63 81 1032.0
20260506200358 11 248 12.9 17.7 0.00 0.00 1.63 82 1032.0
20260506195856 11 270 11.3 12.9 0.00 0.00 1.63 82 1032.0
20260506195356 11 270 14.5 16.1 0.00 0.00 1.63 82 1032.0
20260506194856 12 270 14.5 14.5 0.00 0.00 1.63 83 1032.0
20260506194357 11 248 8.0 19.3 0.00 0.00 1.63 85 1032.0
20260506193858 11 225 9.7 14.5 0.00 0.00 1.63 86 1032.0
20260506193356 11 203 6.4 9.7 0.00 0.00 1.63 86 1032.0
20260506192857 10 248 9.7 11.3 0.00 0.00 1.63 87 1032.0
20260506191858 11 203 3.2 4.8 0.00 0.00 1.63 87 1032.0
20260506191357 10 225 3.2 6.4 0.00 0.00 1.63 86 1032.0
20260506190856 11 180 3.2 4.8 0.00 0.00 1.63 85 1032.0
20260506190357 11 180 6.4 6.4 0.00 0.00 1.63 85 1032.0
20260506185859 11 203 3.2 4.8 0.00 0.00 1.63 85 1032.0
20260506185356 11 158 1.6 3.2 0.00 0.00 1.63 85 1032.0
20260506184856 11 68 1.6 3.2 0.00 0.00 1.63 86 1032.0
20260506184356 11 23 1.6 4.8 0.00 0.00 1.63 86 1032.0
20260506183857 11 158 3.2 3.2 0.00 0.00 1.63 86 1032.0
20260506183356 11 180 3.2 3.2 0.00 0.00 1.63 85 1032.0
20260506182856 11 180 1.6 3.2 0.00 0.00 1.63 84 1032.0
20260506182357 11 158 0.0 0.0 0.00 0.00 1.63 84 1032.0
20260506181857 12 180 0.0 1.6 0.00 0.00 1.63 84 1032.0
20260506181357 11 225 1.6 4.8 0.00 0.00 1.63 84 1032.0
20260506180856 12 270 3.2 4.8 0.00 0.00 1.63 85 1032.0
20260506180357 12 0 1.6 3.2 0.00 0.00 1.63 85 1032.0
20260506175858 12 248 1.6 3.2 0.00 0.00 1.63 86 1032.0
20260506175358 12 135 3.2 3.2 0.00 0.00 1.63 87 1032.0
20260506174857 12 203 0.0 3.2 0.00 0.00 1.63 90 1032.0
20260506174357 12 225 1.6 3.2 0.00 0.00 1.63 91 1032.0
20260506173856 11 225 0.0 1.6 0.00 0.00 1.63 92 1032.0
20260506173358 11 68 3.2 3.2 0.00 0.00 1.63 93 1032.0
20260506172857 11 270 1.6 4.8 0.00 0.00 1.63 94 1032.0
20260506172357 11 45 1.6 1.6 0.00 0.00 1.63 96 1032.0
20260506171856 10 158 0.0 3.2 0.00 0.00 1.63 97 1032.0
20260506171356 10 45 4.8 4.8 0.00 0.00 1.63 97 1032.0
20260506170857 10 68 3.2 3.2 0.00 0.00 1.63 97 1032.0
20260506170357 10 293 1.6 3.2 0.00 0.00 1.63 97 1032.0
20260506165856 10 293 3.2 3.2 0.00 0.00 1.63 98 1032.0
20260506165356 10 45 4.8 6.4 0.00 0.00 1.63 98 1032.0
20260506164859 10 68 1.6 3.2 0.00 0.00 1.63 98 1032.0
20260506164356 9 338 3.2 6.4 0.00 0.00 1.63 98 1032.0
20260506163857 9 45 4.8 4.8 0.00 0.00 1.63 98 1032.0
20260506163356 8 0 3.2 6.4 0.00 0.00 1.63 97 1032.0
20260506162857 9 293 3.2 3.2 0.00 0.00 1.63 97 1032.0
20260506162356 8 270 4.8 6.4 0.00 0.00 1.63 96 1032.0
20260506161856 9 315 3.2 4.8 0.00 0.00 1.63 96 1032.0
20260506161357 9 248 0.0 4.8 0.00 0.00 1.63 96 1032.0
20260506160856 10 293 3.2 3.2 0.00 0.00 1.63 96 1032.0
20260506160359 10 90 0.0 4.8 0.00 0.00 1.63 96 1032.0
20260506155858 10 135 3.2 4.8 0.00 0.00 1.63 97 1032.0
20260506155357 10 113 0.0 1.6 0.00 0.00 1.63 97 1032.0
20260506154856 9 90 3.2 4.8 0.00 0.00 1.63 97 1032.0
20260506154356 10 90 3.2 4.8 0.00 0.00 1.63 98 1032.0
20260506153858 10 68 3.2 3.2 0.00 0.00 1.63 98 1032.0
20260506153356 9 113 3.2 3.2 0.00 0.00 1.63 98 1032.0
20260506152857 9 23 6.4 6.4 0.00 0.00 1.63 98 1032.0
20260506152357 9 90 6.4 6.4 0.00 0.00 1.63 99 1032.0
20260506151857 9 113 3.2 6.4 0.00 0.00 1.63 99 1032.0
20260506151356 8 113 4.8 8.0 0.03 0.00 1.63 99 1032.0
20260506150410 8 90 4.8 8.0 0.03 0.00 1.63 99 1032.0
20260506145856 8 113 4.8 8.0 0.03 0.00 1.63 99 1032.0
20260506145356 8 23 3.2 6.4 0.05 0.00 1.63 99 1032.0
20260506144857 8 90 6.4 9.7 0.05 0.00 1.63 99 1032.0
20260506144357 8 113 4.8 8.0 0.05 0.00 1.63 99 1031.0
20260506143856 8 68 4.8 6.4 0.05 0.00 1.63 99 1031.0
20260506143358 8 45 3.2 4.8 0.05 0.00 1.63 99 1031.0
20260506142856 8 113 3.2 6.4 0.05 0.00 1.63 99 1032.0
20260506142356 7 45 3.2 4.8 0.05 0.00 1.63 99 1032.0
20260506141857 7 90 3.2 3.2 0.03 0.00 1.60 99 1032.0
20260506141358 7 90 6.4 6.4 0.03 0.00 1.60 99 1032.0
20260506140857 7 90 3.2 4.8 0.03 0.00 1.60 99 1031.0